createdAt,value
2023-06-20T00:02:40.716Z,17.43
2023-06-20T00:06:44.016Z,17.93
2023-06-20T00:10:47.379Z,19.97
2023-06-20T00:14:52.115Z,17.30
2023-06-20T00:18:56.180Z,16.97
2023-06-20T00:22:59.676Z,18.93
2023-06-20T00:27:03.431Z,19.50
2023-06-20T00:31:08.343Z,20.43
2023-06-20T00:35:11.951Z,18.93
2023-06-20T00:39:15.216Z,19.63
2023-06-20T00:43:19.779Z,19.03
2023-06-20T00:47:27.819Z,19.83
2023-06-20T00:51:33.186Z,18.67
2023-06-20T00:55:38.155Z,18.67
2023-06-20T00:59:42.458Z,18.03
2023-06-20T01:03:48.606Z,18.47
2023-06-20T01:07:59.842Z,17.63
2023-06-20T01:12:10.688Z,16.63
2023-06-20T01:16:23.895Z,17.47
2023-06-20T01:20:32.949Z,17.03
2023-06-20T01:24:47.597Z,17.90
2023-06-20T01:29:01.104Z,18.10
2023-06-20T01:33:07.064Z,19.70
2023-06-20T01:37:16.345Z,18.77
2023-06-20T01:41:24.837Z,18.77
2023-06-20T01:45:30.935Z,18.30
2023-06-20T01:49:35.728Z,18.17
2023-06-20T01:53:41.082Z,18.30
2023-06-20T01:57:45.809Z,19.07
2023-06-20T02:01:52.636Z,19.67
2023-06-20T02:05:57.380Z,18.07
2023-06-20T02:10:02.320Z,17.57
2023-06-20T02:14:08.653Z,18.53
2023-06-20T02:18:12.057Z,18.37
2023-06-20T02:22:17.518Z,19.67
2023-06-20T02:26:23.697Z,19.50
2023-06-20T02:30:31.610Z,19.97
2023-06-20T02:34:36.359Z,18.53
2023-06-20T02:38:40.571Z,19.00
2023-06-20T02:42:46.061Z,18.10
2023-06-20T02:47:03.838Z,18.00
2023-06-20T02:51:12.192Z,17.83
2023-06-20T02:55:24.215Z,18.90
2023-06-20T02:59:30.773Z,18.50
2023-06-20T03:03:39.202Z,17.10
2023-06-20T03:07:44.300Z,16.90
2023-06-20T03:11:49.101Z,18.13
2023-06-20T03:15:52.495Z,21.80
2023-06-20T03:19:57.287Z,20.63
2023-06-20T03:24:00.732Z,17.90
2023-06-20T03:28:04.057Z,19.90
2023-06-20T03:32:08.113Z,19.20
2023-06-20T03:36:13.502Z,19.63
2023-06-20T03:40:17.021Z,19.03
2023-06-20T03:44:20.379Z,19.43
2023-06-20T03:48:23.734Z,17.77
2023-06-20T03:52:29.833Z,18.43
2023-06-20T03:56:33.274Z,18.37
2023-06-20T04:00:36.537Z,20.37
2023-06-20T04:04:40.199Z,18.63
2023-06-20T04:08:46.515Z,17.23
2023-06-20T04:12:50.007Z,19.47
2023-06-20T04:16:54.096Z,18.27
2023-06-20T04:20:57.396Z,19.13
2023-06-20T04:25:02.494Z,18.93
2023-06-20T04:29:05.808Z,18.57
2023-06-20T04:33:09.701Z,21.17
2023-06-20T04:37:13.363Z,17.57
2023-06-20T04:41:18.084Z,18.80
2023-06-20T04:45:21.724Z,16.90
2023-06-20T04:49:25.021Z,18.10
2023-06-20T04:53:28.523Z,17.50
2023-06-20T04:57:34.267Z,17.80
2023-06-20T05:01:39.066Z,16.23
2023-06-20T05:05:42.684Z,18.20
2023-06-20T05:09:45.971Z,17.20
2023-06-20T05:13:50.703Z,17.20
2023-06-20T05:17:54.185Z,17.83
2023-06-20T05:21:57.641Z,16.30
2023-06-20T05:26:02.910Z,19.10
2023-06-20T05:30:09.657Z,16.60
2023-06-20T05:34:13.125Z,18.17
2023-06-20T05:38:17.354Z,18.50
2023-06-20T05:42:20.624Z,17.03
2023-06-20T05:46:25.777Z,17.10
2023-06-20T05:50:32.018Z,16.70
2023-06-20T05:54:36.891Z,16.87
2023-06-20T05:58:40.490Z,17.23
2023-06-20T06:02:46.738Z,18.10
2023-06-20T06:06:50.156Z,17.57
2023-06-20T06:10:53.489Z,16.80
2023-06-20T06:14:56.862Z,16.40
2023-06-20T06:19:01.959Z,15.13
2023-06-20T06:23:07.579Z,18.17
2023-06-20T06:27:11.084Z,16.50
2023-06-20T06:31:25.723Z,18.63
2023-06-20T06:35:34.431Z,18.10
2023-06-20T06:39:38.867Z,16.77
2023-06-20T06:43:42.167Z,18.27
2023-06-20T06:47:45.706Z,15.90
2023-06-20T06:51:51.620Z,15.47
2023-06-20T06:55:55.360Z,17.17
2023-06-20T06:59:58.810Z,15.30
2023-06-20T07:04:18.533Z,18.00
2023-06-20T07:08:24.152Z,16.57
2023-06-20T07:12:27.424Z,15.67
2023-06-20T07:16:33.166Z,16.00
2023-06-20T07:20:36.606Z,15.73
2023-06-20T07:24:41.300Z,15.73
2023-06-20T07:28:44.867Z,14.27
2023-06-20T07:32:49.592Z,14.83
2023-06-20T07:36:53.028Z,14.10
2023-06-20T07:40:57.719Z,14.97
2023-06-20T07:45:01.042Z,14.93
2023-06-20T07:49:04.578Z,14.73
2023-06-20T07:53:07.956Z,13.90
2023-06-20T07:57:12.858Z,14.70
2023-06-20T08:01:16.187Z,12.97
2023-06-20T08:05:19.499Z,13.67
2023-06-20T08:09:22.955Z,14.20
2023-06-20T08:13:28.391Z,14.70
2023-06-20T08:17:33.536Z,13.90
2023-06-20T08:21:38.844Z,14.70
2023-06-20T08:26:07.987Z,14.50
2023-06-20T08:30:13.737Z,13.50
2023-06-20T08:34:17.139Z,12.70
2023-06-20T08:38:20.811Z,14.03
2023-06-20T08:42:24.193Z,13.30
2023-06-20T08:46:29.417Z,13.53
2023-06-20T08:50:33.900Z,15.10
2023-06-20T08:54:41.040Z,14.50
2023-06-20T08:58:44.501Z,13.53
2023-06-20T09:02:49.285Z,14.47
2023-06-20T09:06:52.726Z,13.97
2023-06-20T09:11:08.042Z,12.90
2023-06-20T09:15:13.968Z,13.93
2023-06-20T09:19:18.836Z,13.83
2023-06-20T09:23:30.358Z,13.30
2023-06-20T09:27:37.062Z,13.17
2023-06-20T09:31:45.621Z,14.73
2023-06-20T09:35:50.333Z,13.37
2023-06-20T09:39:53.735Z,13.60
2023-06-20T09:43:57.598Z,13.07
2023-06-20T09:48:02.131Z,12.30
2023-06-20T09:52:15.743Z,15.33
2023-06-20T09:56:22.154Z,13.33
2023-06-20T10:00:28.749Z,13.67
2023-06-20T10:04:33.755Z,14.57
2023-06-20T10:08:39.662Z,13.60
2023-06-20T10:12:45.569Z,14.43
2023-06-20T10:16:54.356Z,13.43
2023-06-20T10:20:57.752Z,13.97
2023-06-20T10:25:12.843Z,12.43
2023-06-20T10:29:16.465Z,13.73
2023-06-20T10:33:26.267Z,13.60
2023-06-20T10:37:40.730Z,13.80
2023-06-20T10:41:45.541Z,13.10
2023-06-20T10:46:01.066Z,15.27
2023-06-20T10:50:04.620Z,14.90
2023-06-20T10:54:11.521Z,15.33
2023-06-20T10:58:31.716Z,14.37
2023-06-20T11:02:36.854Z,13.23
2023-06-20T11:06:40.813Z,15.47
2023-06-20T11:10:45.500Z,13.67
2023-06-20T11:14:50.167Z,13.67
2023-06-20T11:18:53.901Z,14.27
2023-06-20T11:23:00.196Z,14.40
2023-06-20T11:27:14.398Z,15.00
2023-06-20T11:31:19.264Z,14.60
2023-06-20T11:35:22.577Z,14.47
2023-06-20T11:39:26.523Z,14.90
2023-06-20T11:43:30.921Z,14.53
2023-06-20T11:47:35.632Z,13.80
2023-06-20T11:51:41.901Z,13.50
2023-06-20T11:55:50.025Z,13.73
2023-06-20T11:59:53.410Z,13.43
2023-06-20T12:04:10.727Z,13.40
2023-06-20T12:08:15.382Z,12.73
2023-06-20T12:12:18.854Z,13.40
2023-06-20T12:16:25.234Z,13.43
2023-06-20T12:20:35.885Z,13.70
2023-06-20T12:24:43.796Z,12.50
2023-06-20T12:28:47.458Z,13.67
2023-06-20T12:32:52.258Z,12.23
2023-06-20T12:36:57.060Z,12.90
2023-06-20T12:41:00.560Z,12.03
2023-06-20T12:45:04.193Z,13.13
2023-06-20T12:49:07.443Z,13.43
2023-06-20T12:53:12.551Z,14.90
2023-06-20T12:57:15.853Z,15.00
2023-06-20T13:01:21.877Z,13.70
2023-06-20T13:05:25.369Z,14.40
2023-06-20T13:09:30.222Z,14.23
2023-06-20T13:13:34.647Z,12.50
2023-06-20T13:17:38.575Z,13.80
2023-06-20T13:21:43.028Z,14.40
2023-06-20T13:25:47.753Z,13.53
2023-06-20T13:29:51.021Z,14.13
2023-06-20T13:33:54.934Z,13.60
2023-06-20T13:37:59.308Z,13.77
2023-06-20T13:42:04.356Z,11.97
2023-06-20T13:46:08.110Z,12.30
2023-06-20T13:50:12.718Z,12.40
2023-06-20T13:54:16.120Z,14.10
2023-06-20T13:58:20.766Z,12.37
2023-06-20T14:02:24.507Z,13.57
2023-06-20T14:06:28.882Z,12.07
2023-06-20T14:10:32.399Z,14.90
2023-06-20T14:14:37.084Z,13.63
2023-06-20T14:18:40.703Z,12.60
2023-06-20T14:22:44.810Z,13.20
2023-06-20T14:26:48.145Z,12.57
2023-06-20T14:30:52.859Z,14.37
2023-06-20T14:34:56.330Z,11.73
2023-06-20T14:38:59.656Z,12.53
2023-06-20T14:43:04.009Z,13.70
2023-06-20T14:47:08.995Z,13.17
2023-06-20T14:51:12.321Z,14.33
2023-06-20T14:55:15.776Z,12.43
2023-06-20T14:59:18.994Z,12.87
2023-06-20T15:03:23.850Z,12.63
2023-06-20T15:07:27.249Z,13.23
2023-06-20T15:11:30.786Z,12.30
2023-06-20T15:15:35.324Z,12.77
2023-06-20T15:19:39.928Z,13.07
2023-06-20T15:23:43.400Z,12.43
2023-06-20T15:27:47.275Z,13.43
2023-06-20T15:31:50.675Z,12.63
2023-06-20T15:35:55.949Z,12.73
2023-06-20T15:39:59.446Z,13.40
2023-06-20T15:44:03.646Z,13.00
2023-06-20T15:48:07.264Z,13.50
2023-06-20T15:52:11.997Z,13.30
2023-06-20T15:56:16.356Z,12.93
2023-06-20T16:00:20.164Z,13.07
2023-06-20T16:04:24.511Z,13.27
2023-06-20T16:08:29.502Z,14.60
2023-06-20T16:12:33.161Z,13.70
2023-06-20T16:16:37.654Z,14.10
2023-06-20T16:20:41.007Z,14.00
2023-06-20T16:24:46.446Z,15.17
2023-06-20T16:29:13.480Z,15.27
2023-06-20T16:33:16.906Z,13.50
2023-06-20T16:37:20.213Z,14.57
2023-06-20T16:41:24.990Z,13.63
2023-06-20T16:45:28.274Z,15.23
2023-06-20T16:49:31.760Z,15.70
2023-06-20T16:53:35.083Z,14.23
2023-06-20T16:57:41.112Z,14.40
2023-06-20T17:01:44.582Z,14.80
2023-06-20T17:05:48.062Z,13.90
2023-06-20T17:09:51.392Z,15.30
2023-06-20T17:13:57.160Z,15.23
2023-06-20T17:18:08.292Z,14.70
2023-06-20T17:22:12.125Z,16.30
2023-06-20T17:26:43.898Z,16.07
2023-06-20T17:30:48.709Z,15.13
2023-06-20T17:34:53.191Z,14.67
2023-06-20T17:38:56.580Z,15.30
2023-06-20T17:42:59.833Z,16.70
2023-06-20T17:47:05.231Z,16.97
2023-06-20T17:51:11.157Z,15.50
2023-06-20T17:55:14.585Z,16.30
2023-06-20T17:59:18.198Z,16.87
2023-06-20T18:03:23.486Z,16.77
2023-06-20T18:07:27.034Z,16.77
2023-06-20T18:11:30.510Z,17.60
2023-06-20T18:15:33.875Z,16.03
2023-06-20T18:19:55.124Z,18.47
2023-06-20T18:23:59.786Z,17.70
2023-06-20T18:28:03.063Z,18.03
2023-06-20T18:32:07.488Z,18.00
2023-06-20T18:36:12.397Z,17.90
2023-06-20T18:40:16.011Z,18.60
2023-06-20T18:44:21.564Z,19.90
2023-06-20T18:48:25.313Z,19.20
2023-06-20T18:52:31.182Z,19.83
2023-06-20T18:56:35.083Z,19.60
2023-06-20T19:00:38.999Z,23.20
2023-06-20T19:04:42.737Z,20.70
2023-06-20T19:08:50.502Z,18.87
2023-06-20T19:12:55.879Z,18.97
2023-06-20T19:16:59.596Z,21.83
2023-06-20T19:21:03.390Z,20.67
2023-06-20T19:25:10.570Z,20.67
2023-06-20T19:29:15.919Z,21.43
2023-06-20T19:33:19.502Z,21.27
2023-06-20T19:37:23.706Z,19.70
2023-06-20T19:41:28.951Z,22.47
2023-06-20T19:45:35.066Z,21.77
2023-06-20T19:49:39.841Z,21.10
2023-06-20T19:53:43.454Z,21.80
2023-06-20T19:57:48.540Z,21.90
2023-06-20T20:01:52.577Z,22.00
2023-06-20T20:06:00.815Z,22.97
2023-06-20T20:10:04.492Z,21.70
2023-06-20T20:14:09.825Z,22.67
2023-06-20T20:18:13.437Z,21.70
2023-06-20T20:22:16.867Z,21.87
2023-06-20T20:26:22.815Z,21.13
2023-06-20T20:30:29.856Z,21.07
2023-06-20T20:34:35.497Z,22.00
2023-06-20T20:38:39.124Z,21.60
2023-06-20T20:42:42.845Z,22.47
2023-06-20T20:46:47.736Z,23.80
2023-06-20T20:50:53.527Z,24.33
2023-06-20T20:54:57.745Z,22.13
2023-06-20T20:59:07.896Z,22.83
2023-06-20T21:03:14.101Z,22.70
2023-06-20T21:07:17.568Z,22.10
2023-06-20T21:11:22.792Z,25.47
2023-06-20T21:15:26.272Z,24.50
2023-06-20T21:19:31.137Z,23.57
2023-06-20T21:23:37.295Z,24.00
2023-06-20T21:27:41.759Z,23.40
2023-06-20T21:32:08.649Z,23.17
2023-06-20T21:36:13.356Z,24.47
2023-06-20T21:40:17.792Z,22.00
2023-06-20T21:44:21.128Z,21.93
2023-06-20T21:48:25.595Z,26.83
2023-06-20T21:52:30.318Z,23.17
2023-06-20T21:56:33.608Z,24.80
2023-06-20T22:00:42.905Z,24.23
2023-06-20T22:04:46.284Z,24.43
2023-06-20T22:08:51.093Z,24.20
2023-06-20T22:12:54.586Z,24.27
2023-06-20T22:16:57.791Z,25.90
2023-06-20T22:21:01.321Z,23.47
2023-06-20T22:25:07.085Z,24.37
2023-06-20T22:29:10.485Z,25.00
2023-06-20T22:33:13.853Z,24.20
2023-06-20T22:37:17.377Z,23.60
2023-06-20T22:41:22.233Z,26.23
2023-06-20T22:45:25.546Z,24.57
2023-06-20T22:49:29.958Z,25.23
2023-06-20T22:53:33.309Z,25.70
2023-06-20T22:57:38.828Z,26.63
2023-06-20T23:01:44.960Z,24.93
2023-06-20T23:05:48.597Z,24.70
2023-06-20T23:09:53.990Z,26.30
2023-06-20T23:13:59.105Z,24.67
2023-06-20T23:18:02.448Z,25.60
2023-06-20T23:22:09.045Z,25.00
2023-06-20T23:26:12.776Z,23.70
2023-06-20T23:30:17.600Z,25.93
2023-06-20T23:34:20.927Z,23.83
2023-06-20T23:38:24.446Z,24.40
2023-06-20T23:42:29.347Z,24.47
2023-06-20T23:46:35.800Z,24.77
2023-06-20T23:50:39.261Z,25.70
2023-06-20T23:54:42.656Z,26.43
2023-06-20T23:58:45.886Z,27.47
